createdAt,value
2022-09-12T00:01:11.769Z,9.10
2022-09-12T00:03:58.158Z,9.20
2022-09-12T00:06:35.907Z,9.38
2022-09-12T00:09:32.437Z,9.38
2022-09-12T00:12:02.208Z,9.88
2022-09-12T00:14:40.892Z,9.85
2022-09-12T00:17:08.285Z,9.07
2022-09-12T00:19:39.836Z,9.15
2022-09-12T00:22:24.516Z,8.88
2022-09-12T00:24:55.947Z,8.52
2022-09-12T00:28:12.531Z,8.93
2022-09-12T00:31:10.280Z,9.57
2022-09-12T00:34:01.637Z,9.38
2022-09-12T00:36:30.298Z,9.50
2022-09-12T00:39:15.612Z,9.52
2022-09-12T00:41:59.394Z,10.63
2022-09-12T00:44:25.853Z,10.03
2022-09-12T00:47:16.744Z,9.60
2022-09-12T00:50:38.073Z,11.13
2022-09-12T00:53:24.109Z,10.80
2022-09-12T00:56:23.935Z,10.70
2022-09-12T00:59:01.794Z,10.60
2022-09-12T01:01:36.880Z,11.57
2022-09-12T01:04:28.145Z,9.68
2022-09-12T01:07:24.313Z,9.75
2022-09-12T01:10:39.656Z,10.57
2022-09-12T01:13:09.272Z,9.53
2022-09-12T01:15:52.680Z,11.20
2022-09-12T01:18:30.964Z,10.65
2022-09-12T01:21:24.826Z,11.05
2022-09-12T01:24:47.372Z,10.55
2022-09-12T01:28:03.837Z,10.23
2022-09-12T01:31:13.220Z,11.45
2022-09-12T01:34:28.461Z,9.93
2022-09-12T01:37:12.981Z,11.60
2022-09-12T01:40:33.864Z,11.40
2022-09-12T01:43:28.759Z,10.33
2022-09-12T01:46:44.108Z,10.82
2022-09-12T01:49:19.955Z,10.13
2022-09-12T01:52:18.525Z,10.48
2022-09-12T01:55:05.445Z,10.85
2022-09-12T01:57:56.114Z,11.03
2022-09-12T02:00:27.284Z,9.70
2022-09-12T02:03:38.454Z,10.80
2022-09-12T02:06:12.064Z,10.32
2022-09-12T02:09:20.818Z,9.40
2022-09-12T02:11:52.471Z,9.77
2022-09-12T02:14:42.996Z,10.60
2022-09-12T02:17:16.623Z,9.45
2022-09-12T02:20:26.032Z,9.88
2022-09-12T02:23:08.909Z,9.70
2022-09-12T02:25:43.138Z,10.17
2022-09-12T02:28:21.687Z,9.80
2022-09-12T02:31:23.339Z,9.57
2022-09-12T02:34:35.465Z,9.48
2022-09-12T02:37:08.720Z,9.25
2022-09-12T02:39:55.826Z,8.83
2022-09-12T02:42:29.361Z,9.75
2022-09-12T02:45:00.112Z,10.70
2022-09-12T02:48:04.233Z,10.63
2022-09-12T02:50:32.176Z,10.93
2022-09-12T02:53:13.411Z,10.50
2022-09-12T02:55:42.050Z,10.77
2022-09-12T02:58:18.235Z,10.80
2022-09-12T03:01:12.499Z,10.63
2022-09-12T03:04:08.308Z,10.55
2022-09-12T03:07:13.137Z,10.77
2022-09-12T03:13:39.137Z,11.73
2022-09-12T03:16:31.711Z,11.18
2022-09-12T03:19:29.268Z,11.38
2022-09-12T03:22:34.845Z,11.77
2022-09-12T03:25:49.720Z,11.52
2022-09-12T03:28:19.139Z,10.88
2022-09-12T03:31:16.772Z,11.18
2022-09-12T03:34:13.108Z,11.02
2022-09-12T03:36:49.792Z,10.37
2022-09-12T03:39:21.078Z,11.10
2022-09-12T03:41:51.210Z,10.23
2022-09-12T03:44:23.152Z,11.57
2022-09-12T03:46:51.770Z,11.35
2022-09-12T03:49:27.515Z,12.73
2022-09-12T03:51:57.026Z,11.23
2022-09-12T03:54:27.591Z,11.10
2022-09-12T03:56:55.192Z,11.25
2022-09-12T03:59:22.776Z,11.43
2022-09-12T04:01:56.324Z,10.60
2022-09-12T04:04:30.062Z,10.98
2022-09-12T04:07:11.190Z,11.60
2022-09-12T04:09:56.443Z,12.30
2022-09-12T04:12:31.618Z,12.15
2022-09-12T04:15:00.270Z,11.53
2022-09-12T04:17:36.116Z,11.93
2022-09-12T04:20:06.769Z,11.98
2022-09-12T04:22:35.535Z,11.85
2022-09-12T04:25:19.546Z,11.25
2022-09-12T04:27:48.222Z,12.67
2022-09-12T04:30:16.102Z,12.15
2022-09-12T04:33:32.593Z,12.50
2022-09-12T04:36:25.034Z,11.65
2022-09-12T04:39:10.632Z,12.35
2022-09-12T04:41:53.656Z,13.17
2022-09-12T04:44:25.204Z,12.32
2022-09-12T04:47:12.145Z,11.70
2022-09-12T04:49:44.930Z,12.68
2022-09-12T04:52:11.697Z,12.77
2022-09-12T04:54:42.869Z,13.23
2022-09-12T04:57:13.471Z,12.43
2022-09-12T04:59:40.191Z,13.68
2022-09-12T05:02:07.830Z,14.73
2022-09-12T05:04:36.135Z,12.93
2022-09-12T05:07:09.866Z,13.17
2022-09-12T05:09:47.914Z,14.88
2022-09-12T05:12:24.036Z,13.70
2022-09-12T05:14:55.958Z,14.98
2022-09-12T05:18:00.523Z,14.25
2022-09-12T05:20:40.448Z,13.70
2022-09-12T05:23:09.917Z,13.38
2022-09-12T05:25:59.495Z,14.57
2022-09-12T05:28:30.811Z,14.13
2022-09-12T05:31:24.263Z,12.73
2022-09-12T05:34:15.724Z,12.83
2022-09-12T05:37:00.756Z,14.20
2022-09-12T05:39:34.371Z,14.18
2022-09-12T05:42:09.285Z,13.52
2022-09-12T05:44:37.034Z,13.90
2022-09-12T05:47:04.601Z,13.80
2022-09-12T05:49:59.949Z,13.88
2022-09-12T05:52:41.014Z,13.95
2022-09-12T05:55:16.678Z,14.02
2022-09-12T05:57:50.489Z,13.60
2022-09-12T06:00:20.662Z,14.40
2022-09-12T06:03:02.455Z,15.13
2022-09-12T06:05:29.094Z,15.98
2022-09-12T06:08:04.177Z,14.85
2022-09-12T06:11:03.901Z,15.30
2022-09-12T06:13:42.861Z,15.13
2022-09-12T06:16:31.291Z,15.05
2022-09-12T06:19:18.934Z,14.85
2022-09-12T06:22:10.045Z,16.25
2022-09-12T06:24:44.766Z,16.42
2022-09-12T06:27:20.618Z,17.60
2022-09-12T06:30:37.425Z,18.08
2022-09-12T06:33:56.625Z,18.50
2022-09-12T06:36:49.652Z,18.90
2022-09-12T06:39:26.233Z,17.30
2022-09-12T06:42:12.636Z,18.77
2022-09-12T06:44:40.300Z,18.42
2022-09-12T06:47:12.932Z,19.10
2022-09-12T06:49:56.746Z,20.45
2022-09-12T06:52:55.189Z,19.15
2022-09-12T06:55:27.714Z,19.13
2022-09-12T06:58:05.887Z,21.65
2022-09-12T07:00:32.475Z,20.90
2022-09-12T07:03:05.238Z,19.38
2022-09-12T07:05:35.813Z,21.92
2022-09-12T07:08:08.344Z,19.27
2022-09-12T07:11:25.809Z,20.50
2022-09-12T07:14:37.796Z,19.38
2022-09-12T07:17:28.983Z,20.17
2022-09-12T07:20:07.249Z,20.27
2022-09-12T07:22:37.956Z,21.00
2022-09-12T07:25:11.507Z,19.27
2022-09-12T07:27:47.133Z,21.13
2022-09-12T07:30:23.252Z,20.77
2022-09-12T07:32:56.069Z,21.08
2022-09-12T07:35:33.428Z,21.10
2022-09-12T07:38:11.248Z,21.30
2022-09-12T07:40:38.690Z,20.65
2022-09-12T07:43:21.928Z,21.88
2022-09-12T07:45:55.909Z,21.85
2022-09-12T07:48:30.466Z,20.73
2022-09-12T07:51:03.476Z,21.10
2022-09-12T07:53:40.174Z,21.33
2022-09-12T07:56:11.232Z,20.88
2022-09-12T07:58:44.995Z,20.02
2022-09-12T08:01:25.124Z,18.83
2022-09-12T08:04:00.003Z,20.30
2022-09-12T08:06:37.059Z,20.20
2022-09-12T08:09:17.468Z,17.88
2022-09-12T08:11:50.140Z,19.42
2022-09-12T08:14:32.096Z,19.87
2022-09-12T08:16:59.544Z,19.00
2022-09-12T08:19:28.005Z,19.33
2022-09-12T08:21:55.465Z,19.63
2022-09-12T08:28:15.807Z,18.03
2022-09-12T08:30:43.369Z,18.15
2022-09-12T08:33:10.901Z,18.30
2022-09-12T08:35:54.680Z,18.30
2022-09-12T08:38:25.287Z,18.02
2022-09-12T08:41:05.290Z,18.27
2022-09-12T08:44:23.705Z,18.75
2022-09-12T08:47:02.488Z,16.55
2022-09-12T08:49:34.283Z,16.95
2022-09-12T08:52:15.485Z,16.17
2022-09-12T08:54:45.510Z,16.17
2022-09-12T08:57:20.325Z,16.13
2022-09-12T08:59:48.305Z,16.48
2022-09-12T09:02:44.960Z,14.85
2022-09-12T09:05:25.211Z,15.43
2022-09-12T09:08:18.517Z,15.17
2022-09-12T09:11:03.736Z,15.02
2022-09-12T09:13:56.496Z,14.18
2022-09-12T09:16:30.633Z,14.48
2022-09-12T09:19:05.990Z,15.13
2022-09-12T09:21:48.816Z,13.97
2022-09-12T09:24:21.752Z,13.90
2022-09-12T09:27:01.661Z,13.57
2022-09-12T09:29:51.183Z,13.32
2022-09-12T09:32:22.904Z,13.63
2022-09-12T09:34:49.665Z,12.63
2022-09-12T09:37:42.469Z,13.02
2022-09-12T09:40:24.255Z,12.25
2022-09-12T09:43:29.809Z,13.82
2022-09-12T09:45:58.380Z,12.88
2022-09-12T09:48:29.837Z,12.37
2022-09-12T09:50:58.375Z,12.30
2022-09-12T09:53:39.732Z,10.85
2022-09-12T09:56:13.427Z,12.02
2022-09-12T09:58:40.471Z,12.95
2022-09-12T10:01:17.018Z,12.90
2022-09-12T10:03:55.775Z,12.32
2022-09-12T10:06:38.034Z,12.98
2022-09-12T10:09:18.745Z,12.80
2022-09-12T10:11:46.244Z,12.15
2022-09-12T10:14:31.487Z,12.20
2022-09-12T12:25:50.516Z,3.80
2022-09-12T12:28:40.212Z,4.50
2022-09-12T12:31:07.340Z,3.15
2022-09-12T12:33:37.392Z,3.08
2022-09-12T12:36:07.143Z,3.30
2022-09-12T12:38:36.586Z,4.22
2022-09-12T12:41:18.453Z,3.80
2022-09-12T12:43:47.984Z,4.03
2022-09-12T12:46:16.854Z,3.92
2022-09-12T12:49:00.951Z,3.53
2022-09-12T12:51:36.908Z,3.58
2022-09-12T12:54:25.235Z,3.53
2022-09-12T12:57:15.648Z,3.45
2022-09-12T13:00:11.374Z,4.13
2022-09-12T13:03:09.506Z,4.38
2022-09-12T13:05:46.732Z,3.88
2022-09-12T13:08:19.253Z,3.83
2022-09-12T13:11:15.907Z,3.60
2022-09-12T13:13:58.858Z,2.90
2022-09-12T13:16:39.055Z,3.22
2022-09-12T13:19:18.171Z,3.28
2022-09-12T13:22:05.430Z,3.40
2022-09-12T13:24:34.113Z,3.15
2022-09-12T13:27:00.655Z,3.58
2022-09-12T13:29:28.115Z,3.70
2022-09-12T13:31:59.178Z,3.55
2022-09-12T13:34:47.117Z,3.90
2022-09-12T13:37:41.484Z,3.90
2022-09-12T13:40:37.434Z,3.28
2022-09-12T13:43:21.843Z,3.25
2022-09-12T13:45:48.433Z,3.28
2022-09-12T13:48:25.287Z,3.90
2022-09-12T13:50:56.392Z,4.10
2022-09-12T13:53:27.184Z,4.38
2022-09-12T13:55:57.048Z,3.92
2022-09-12T13:58:33.221Z,3.85
2022-09-12T14:01:05.344Z,4.13
2022-09-12T14:03:58.055Z,3.20
2022-09-12T14:06:26.237Z,4.10
2022-09-12T14:09:01.490Z,3.75
2022-09-12T14:11:33.710Z,4.45
2022-09-12T14:14:06.472Z,4.27
2022-09-12T14:16:39.937Z,4.20
2022-09-12T14:19:06.381Z,3.67
2022-09-12T14:21:35.952Z,3.60
2022-09-12T14:24:06.703Z,3.42
2022-09-12T14:26:40.429Z,3.70
2022-09-12T14:29:08.040Z,3.60
2022-09-12T14:31:39.259Z,2.97
2022-09-12T14:34:14.948Z,3.38
2022-09-12T14:36:47.213Z,3.65
2022-09-12T14:39:40.069Z,3.20
2022-09-12T14:42:12.883Z,3.55
2022-09-12T14:44:39.956Z,3.35
2022-09-12T14:47:18.444Z,3.22
2022-09-12T14:49:46.106Z,3.95
2022-09-12T14:52:34.178Z,3.10
2022-09-12T14:55:34.059Z,3.45
2022-09-12T14:58:28.209Z,3.30
2022-09-12T15:01:04.580Z,3.13
2022-09-12T15:03:48.682Z,3.50
2022-09-12T15:06:25.510Z,3.53
2022-09-12T15:08:54.865Z,2.88
2022-09-12T15:11:21.535Z,3.10
2022-09-12T15:13:48.183Z,3.17
2022-09-12T15:16:14.664Z,3.45
2022-09-12T15:18:41.481Z,3.40
2022-09-12T15:21:11.791Z,3.38
2022-09-12T15:23:45.656Z,3.03
2022-09-12T15:26:18.549Z,3.28
2022-09-12T15:28:45.837Z,3.22
2022-09-12T15:31:27.851Z,3.50
2022-09-12T15:33:55.361Z,3.42
2022-09-12T15:36:24.785Z,3.25
2022-09-12T15:38:52.242Z,3.28
2022-09-12T15:41:32.480Z,3.10
2022-09-12T15:43:58.975Z,3.20
2022-09-12T15:46:26.458Z,3.15
2022-09-12T15:48:52.900Z,2.97
2022-09-12T15:51:21.188Z,2.90
2022-09-12T15:53:49.014Z,2.83
2022-09-12T15:56:21.092Z,3.20
2022-09-12T15:58:58.158Z,3.35
2022-09-12T16:01:25.627Z,2.45
2022-09-12T16:03:52.060Z,2.78
2022-09-12T16:06:18.403Z,2.75
2022-09-12T16:08:44.823Z,2.93
2022-09-12T16:11:19.372Z,2.78
2022-09-12T16:13:45.687Z,2.70
2022-09-12T16:16:13.388Z,3.13
2022-09-12T16:18:41.442Z,2.70
2022-09-12T16:21:11.469Z,3.00
2022-09-12T16:23:46.303Z,2.65
2022-09-12T16:26:13.392Z,2.28
2022-09-12T16:28:40.096Z,2.58
2022-09-12T16:31:08.650Z,2.70
2022-09-12T16:33:37.897Z,2.57
2022-09-12T16:36:07.424Z,2.50
2022-09-12T16:38:35.645Z,2.47
2022-09-12T16:41:06.676Z,2.25
2022-09-12T16:43:35.083Z,2.50
2022-09-12T16:46:16.222Z,2.17
2022-09-12T16:48:52.082Z,2.67
2022-09-12T16:51:21.676Z,2.75
2022-09-12T16:53:48.704Z,2.47
2022-09-12T16:56:15.416Z,2.42
2022-09-12T16:58:42.422Z,2.33
2022-09-12T17:01:15.144Z,2.80
2022-09-12T17:03:42.603Z,2.40
2022-09-12T17:06:12.840Z,2.55
2022-09-12T17:08:42.530Z,2.58
2022-09-12T17:11:11.781Z,3.00
2022-09-12T17:14:02.608Z,2.30
2022-09-12T17:16:27.895Z,2.00
2022-09-12T17:18:54.912Z,2.80
2022-09-12T17:21:22.508Z,2.60
2022-09-12T17:23:49.282Z,2.80
2022-09-12T17:26:17.412Z,2.20
2022-09-12T17:28:44.097Z,2.50
2022-09-12T17:31:13.692Z,3.22
2022-09-12T17:33:40.877Z,2.20
2022-09-12T17:36:14.860Z,2.57
2022-09-12T17:38:48.149Z,2.63
2022-09-12T17:41:18.463Z,2.50
2022-09-12T17:43:49.402Z,2.63
2022-09-12T17:46:18.571Z,2.75
2022-09-12T17:48:55.152Z,3.10
2022-09-12T17:51:24.930Z,3.08
2022-09-12T17:54:08.395Z,3.00
2022-09-12T17:56:37.100Z,2.95
2022-09-12T17:59:05.367Z,2.70
2022-09-12T18:01:51.220Z,2.70
2022-09-12T18:04:17.892Z,3.40
2022-09-12T18:06:49.001Z,3.13
2022-09-12T18:09:23.297Z,2.58
2022-09-12T18:11:51.498Z,2.70
2022-09-12T18:14:18.537Z,3.30
2022-09-12T18:16:46.945Z,3.40
2022-09-12T18:19:15.007Z,3.10
2022-09-12T18:21:42.738Z,3.40
2022-09-12T18:24:10.173Z,3.70
2022-09-12T18:26:38.446Z,3.33
2022-09-12T18:29:06.632Z,3.83
2022-09-12T18:31:34.227Z,3.53
2022-09-12T18:34:00.987Z,3.58
2022-09-12T18:36:28.352Z,3.50
2022-09-12T18:38:56.836Z,3.40
2022-09-12T18:41:24.787Z,3.65
2022-09-12T18:43:59.902Z,3.28
2022-09-12T18:46:27.929Z,2.83
2022-09-12T18:48:58.698Z,3.60
2022-09-12T18:51:31.914Z,3.37
2022-09-12T18:54:06.346Z,3.28
2022-09-12T18:56:35.068Z,3.33
2022-09-12T18:59:05.469Z,3.65
2022-09-12T19:01:34.712Z,3.97
2022-09-12T19:04:04.679Z,3.40
2022-09-12T19:06:35.188Z,3.30
2022-09-12T19:09:07.618Z,3.90
2022-09-12T19:11:39.267Z,4.10
2022-09-12T19:14:06.504Z,3.55
2022-09-12T19:16:33.761Z,4.00
2022-09-12T19:19:02.670Z,3.40
2022-09-12T19:21:31.371Z,4.00
2022-09-12T19:24:10.090Z,3.60
2022-09-12T19:26:39.056Z,3.92
2022-09-12T19:29:06.687Z,3.93
2022-09-12T19:31:35.356Z,4.18
2022-09-12T19:34:06.495Z,4.57
2022-09-12T19:36:50.670Z,4.32
2022-09-12T19:39:20.091Z,4.68
2022-09-12T19:41:47.028Z,4.50
2022-09-12T19:44:13.687Z,4.32
2022-09-12T19:46:40.804Z,4.53
2022-09-12T19:49:10.072Z,5.35
2022-09-12T19:51:38.722Z,5.10
2022-09-12T19:54:06.041Z,4.73
2022-09-12T19:56:33.427Z,4.05
2022-09-12T19:59:00.106Z,4.47
2022-09-12T20:01:28.518Z,4.72
2022-09-12T20:03:57.563Z,4.43
2022-09-12T20:06:24.761Z,4.87
2022-09-12T20:08:52.231Z,4.95
2022-09-12T20:11:21.776Z,4.78
2022-09-12T20:13:48.225Z,5.13
2022-09-12T20:16:23.189Z,4.80
2022-09-12T20:18:55.226Z,5.10
2022-09-12T20:21:25.530Z,5.32
2022-09-12T20:23:51.950Z,6.00
2022-09-12T20:26:20.393Z,5.60
2022-09-12T20:28:47.109Z,5.22
2022-09-12T20:31:16.537Z,5.20
2022-09-12T20:33:43.487Z,5.68
2022-09-12T20:36:16.995Z,5.60
2022-09-12T20:38:50.023Z,5.35
2022-09-12T20:41:19.828Z,5.93
2022-09-12T20:43:53.059Z,5.57
2022-09-12T20:46:22.481Z,5.07
2022-09-12T20:48:51.182Z,5.20
2022-09-12T20:51:19.956Z,5.18
2022-09-12T20:53:54.855Z,5.57
2022-09-12T20:56:22.565Z,5.70
2022-09-12T20:58:49.075Z,5.97
2022-09-12T21:01:17.146Z,5.47
2022-09-12T21:03:44.723Z,6.05
2022-09-12T21:06:16.852Z,5.70
2022-09-12T21:08:44.200Z,5.77
2022-09-12T21:11:10.775Z,5.68
2022-09-12T21:13:38.808Z,5.95
2022-09-12T21:16:12.249Z,5.60
2022-09-12T21:18:39.525Z,5.68
2022-09-12T21:21:06.126Z,5.40
2022-09-12T21:23:33.668Z,5.93
2022-09-12T21:26:01.355Z,5.68
2022-09-12T21:28:28.520Z,6.00
2022-09-12T21:31:00.976Z,5.80
2022-09-12T21:33:28.439Z,5.70
2022-09-12T21:36:02.653Z,4.97
2022-09-12T21:38:31.764Z,5.30
2022-09-12T21:41:05.202Z,5.70
2022-09-12T21:43:31.653Z,5.70
2022-09-12T21:46:01.563Z,5.60
2022-09-12T21:48:30.424Z,5.05
2022-09-12T21:50:58.480Z,5.00
2022-09-12T21:53:26.416Z,5.55
2022-09-12T21:56:01.299Z,5.10
2022-09-12T21:58:27.845Z,4.93
2022-09-12T22:00:55.341Z,4.82
2022-09-12T22:03:22.176Z,4.97
2022-09-12T22:05:58.817Z,4.68
2022-09-12T22:08:26.895Z,5.60
2022-09-12T22:10:58.449Z,5.03
2022-09-12T22:13:26.193Z,5.40
2022-09-12T22:15:53.175Z,5.20
2022-09-12T22:18:20.697Z,5.30
2022-09-12T22:20:48.308Z,5.63
2022-09-12T22:23:33.757Z,5.40
2022-09-12T22:26:03.180Z,5.13
2022-09-12T22:28:32.083Z,4.88
2022-09-12T22:30:59.600Z,5.60
2022-09-12T22:33:27.952Z,5.00
2022-09-12T22:35:56.323Z,5.17
2022-09-12T22:38:26.205Z,5.13
2022-09-12T22:40:53.619Z,5.35
2022-09-12T22:43:21.071Z,4.97
2022-09-12T22:45:48.532Z,5.20
2022-09-12T22:48:17.121Z,6.20
2022-09-12T22:50:45.726Z,5.15
2022-09-12T22:53:12.103Z,4.90
2022-09-12T22:55:38.565Z,5.57
2022-09-12T22:58:06.133Z,5.40
2022-09-12T23:00:33.817Z,5.53
2022-09-12T23:03:02.287Z,5.30
2022-09-12T23:05:28.996Z,5.15
2022-09-12T23:07:56.376Z,4.90
2022-09-12T23:10:23.797Z,5.00
2022-09-12T23:12:50.325Z,5.33
2022-09-12T23:15:16.909Z,5.32
2022-09-12T23:17:43.292Z,5.35
2022-09-12T23:20:10.843Z,5.45
2022-09-12T23:22:38.216Z,6.05
2022-09-12T23:25:04.940Z,5.87
2022-09-12T23:27:32.436Z,5.50
2022-09-12T23:29:59.808Z,5.57
2022-09-12T23:32:27.428Z,5.70
2022-09-12T23:34:53.916Z,5.97
2022-09-12T23:37:21.657Z,6.47
2022-09-12T23:39:49.647Z,5.85
2022-09-12T23:42:16.999Z,6.07
2022-09-12T23:44:43.476Z,6.32
2022-09-12T23:47:18.487Z,6.28
2022-09-12T23:49:45.898Z,5.90
2022-09-12T23:52:12.337Z,5.65
2022-09-12T23:54:40.136Z,6.00
2022-09-12T23:57:08.663Z,6.35
2022-09-12T23:59:35.139Z,6.10
